Time;durP1;ratioP1;P1;durP2;ratioP2;P2;SDS_P1;SDS_P2;PMS_P1;PMS_P2;Temp;Humidity;BMP_temperature;BMP_pressure;BME280_temperature;BME280_humidity;BME280_pressure;Samples;Min_cycle;Max_cycle;Signal;HPM_P1;HPM_P2
2021/09/14 00:01:54;;;;;;;27.30;19.85;;;;;;;;;;5074957;28;20476;-66
2021/09/14 00:04:20;;;;;;;22.80;18.10;;;;;;;;;;5075414;28;20071;-66
2021/09/14 00:06:46;;;;;;;24.27;19.38;;;;;;;;;;5076220;28;20035;-66
2021/09/14 00:09:12;;;;;;;23.58;18.83;;;;;;;;;;5074654;28;20024;-66
2021/09/14 00:11:39;;;;;;;22.48;18.23;;;;;;;;;;5074669;28;20430;-66
2021/09/14 00:14:06;;;;;;;24.95;18.02;;;;;;;;;;5074802;28;20615;-66
2021/09/14 00:16:32;;;;;;;22.88;18.10;;;;;;;;;;5075154;28;20500;-66
2021/09/14 00:18:58;;;;;;;25.20;18.70;;;;;;;;;;5075494;28;20031;-66
2021/09/14 00:21:24;;;;;;;23.90;18.15;;;;;;;;;;5075636;28;20034;-66
2021/09/14 00:23:50;;;;;;;22.00;17.55;;;;;;;;;;5075189;28;20020;-66
2021/09/14 00:26:17;;;;;;;23.17;18.10;;;;;;;;;;5074185;28;20031;-66
2021/09/14 00:28:43;;;;;;;24.08;17.67;;;;;;;;;;5074163;28;20615;-66
2021/09/14 00:31:09;;;;;;;22.63;17.95;;;;;;;;;;5075452;28;20484;-66
2021/09/14 00:33:35;;;;;;;24.98;20.70;;;;;;;;;;5075063;28;20546;-66
2021/09/14 00:36:01;;;;;;;25.17;19.33;;;;;;;;;;5073820;28;20036;-66
2021/09/14 00:38:27;;;;;;;24.73;19.58;;;;;;;;;;5075110;28;20034;-66
2021/09/14 00:40:53;;;;;;;23.98;18.85;;;;;;;;;;5075390;28;20052;-66
2021/09/14 00:43:20;;;;;;;26.95;20.17;;;;;;;;;;5075093;28;20063;-66
2021/09/14 00:45:46;;;;;;;22.70;18.13;;;;;;;;;;5074925;28;20024;-67
2021/09/14 00:48:12;;;;;;;22.85;19.55;;;;;;;;;;5075221;28;20122;-66
2021/09/14 00:50:38;;;;;;;26.85;18.95;;;;;;;;;;5074990;28;20461;-66
2021/09/14 00:53:04;;;;;;;25.00;19.27;;;;;;;;;;5075022;28;20080;-66
2021/09/14 00:55:30;;;;;;;26.02;18.27;;;;;;;;;;5073477;28;20507;-67
2021/09/14 00:57:56;;;;;;;25.48;19.48;;;;;;;;;;5073970;28;20028;-66
2021/09/14 01:00:22;;;;;;;26.65;21.45;;;;;;;;;;5075180;28;20538;-66
2021/09/14 01:02:49;;;;;;;25.10;19.83;;;;;;;;;;5074937;28;20021;-66
2021/09/14 01:05:15;;;;;;;23.48;18.73;;;;;;;;;;5074541;28;20021;-66
2021/09/14 01:07:42;;;;;;;25.35;21.25;;;;;;;;;;5074727;28;20078;-66
2021/09/14 01:10:08;;;;;;;26.45;19.73;;;;;;;;;;5074638;28;20025;-66
2021/09/14 01:12:34;;;;;;;26.80;22.00;;;;;;;;;;5073626;28;20024;-66
2021/09/14 01:15:00;;;;;;;29.58;22.83;;;;;;;;;;5074359;28;20062;-66
2021/09/14 01:17:26;;;;;;;27.77;21.55;;;;;;;;;;5072814;28;20025;-66
2021/09/14 01:19:52;;;;;;;29.85;22.00;;;;;;;;;;5074404;28;20032;-66
2021/09/14 01:22:18;;;;;;;28.25;21.98;;;;;;;;;;5073090;28;20389;-66
2021/09/14 01:24:44;;;;;;;26.73;22.40;;;;;;;;;;5074241;28;20027;-66
2021/09/14 01:27:11;;;;;;;28.75;22.25;;;;;;;;;;5074482;28;20031;-65
2021/09/14 01:32:21;;;;;;;29.52;22.83;;;;;;;;;;5074269;28;20082;-66
2021/09/14 01:34:47;;;;;;;30.08;23.60;;;;;;;;;;5073900;28;20162;-67
2021/09/14 01:37:13;;;;;;;29.60;22.50;;;;;;;;;;5073861;28;20111;-66
2021/09/14 01:39:39;;;;;;;30.25;23.88;;;;;;;;;;5073926;28;20040;-66
2021/09/14 01:42:05;;;;;;;28.88;23.35;;;;;;;;;;5072814;28;20035;-66
2021/09/14 01:44:31;;;;;;;29.05;24.10;;;;;;;;;;5073639;28;20052;-66
2021/09/14 01:46:57;;;;;;;28.90;21.83;;;;;;;;;;5073991;28;20051;-66
2021/09/14 01:49:23;;;;;;;31.35;23.48;;;;;;;;;;5074094;28;20024;-66
2021/09/14 01:51:49;;;;;;;28.48;22.67;;;;;;;;;;5072653;28;20107;-66
2021/09/14 01:54:15;;;;;;;27.02;22.30;;;;;;;;;;5073388;28;20495;-66
2021/09/14 01:56:41;;;;;;;29.65;23.38;;;;;;;;;;5073541;28;20021;-66
2021/09/14 01:59:08;;;;;;;26.58;21.33;;;;;;;;;;5072469;28;20020;-66
2021/09/14 02:01:40;;;;;;;29.60;23.05;;;;;;;;;;5072598;28;20017;-66
2021/09/14 02:04:16;;;;;;;28.30;22.45;;;;;;;;;;5071926;28;20086;-66
2021/09/14 02:24:01;;;;;;;53.35;47.00;;;;;;;;;;5073102;28;20075;-66
2021/09/14 02:58:51;;;;;;;28.77;22.85;;;;;;;;;;5072824;28;20025;-66
2021/09/14 03:01:17;;;;;;;29.33;22.35;;;;;;;;;;5072479;28;20107;-65
2021/09/14 03:03:49;;;;;;;30.95;23.05;;;;;;;;;;5071913;28;20029;-66
2021/09/14 03:06:15;;;;;;;27.45;22.08;;;;;;;;;;5072534;28;20017;-66
2021/09/14 03:08:41;;;;;;;30.33;23.10;;;;;;;;;;5072477;28;20447;-66
2021/09/14 03:11:08;;;;;;;29.13;23.10;;;;;;;;;;5072182;28;20020;-66
2021/09/14 03:13:35;;;;;;;32.03;22.63;;;;;;;;;;5071855;28;20029;-66
2021/09/14 03:16:01;;;;;;;29.58;21.98;;;;;;;;;;5070962;28;20029;-66
2021/09/14 03:18:27;;;;;;;31.65;25.38;;;;;;;;;;5071071;28;20025;-66
2021/09/14 03:20:53;;;;;;;32.22;23.88;;;;;;;;;;5071012;28;20518;-66
2021/09/14 03:23:19;;;;;;;28.48;22.98;;;;;;;;;;5072187;28;20029;-66
2021/09/14 03:25:45;;;;;;;30.30;22.95;;;;;;;;;;5071953;28;20483;-66
2021/09/14 03:28:11;;;;;;;33.20;23.52;;;;;;;;;;5072092;28;20074;-65
2021/09/14 03:30:37;;;;;;;30.60;23.20;;;;;;;;;;5072001;28;20017;-65
2021/09/14 03:33:04;;;;;;;31.60;24.70;;;;;;;;;;5071796;28;20032;-66
2021/09/14 03:35:30;;;;;;;29.23;23.48;;;;;;;;;;5071624;28;20031;-66
2021/09/14 03:37:56;;;;;;;32.65;23.73;;;;;;;;;;5072223;28;20024;-66
2021/09/14 03:40:22;;;;;;;29.55;24.25;;;;;;;;;;5072077;28;20028;-66
2021/09/14 03:42:48;;;;;;;30.00;23.20;;;;;;;;;;5071874;28;20024;-66
2021/09/14 03:45:14;;;;;;;31.50;24.50;;;;;;;;;;5071338;28;20024;-66
2021/09/14 03:47:40;;;;;;;32.88;24.13;;;;;;;;;;5070785;28;20099;-66
2021/09/14 03:50:06;;;;;;;30.67;23.63;;;;;;;;;;5071450;28;20492;-66
2021/09/14 03:52:32;;;;;;;34.53;25.33;;;;;;;;;;5071913;28;20377;-66
2021/09/14 03:54:58;;;;;;;31.35;24.58;;;;;;;;;;5070302;28;20036;-66
2021/09/14 03:57:24;;;;;;;31.50;23.90;;;;;;;;;;5071897;28;20098;-66
2021/09/14 03:59:50;;;;;;;31.10;24.15;;;;;;;;;;5070174;28;20024;-66
2021/09/14 04:02:28;;;;;;;32.28;23.98;;;;;;;;;;5071453;28;20040;-66
2021/09/14 04:09:55;;;;;;;30.48;24.10;;;;;;;;;;5071762;28;20115;-66
2021/09/14 04:12:21;;;;;;;32.63;24.10;;;;;;;;;;5071513;28;20029;-66
2021/09/14 04:14:47;;;;;;;30.98;23.60;;;;;;;;;;5071085;28;20029;-66
2021/09/14 04:17:13;;;;;;;31.83;23.02;;;;;;;;;;5071659;28;20052;-66
2021/09/14 04:19:39;;;;;;;32.42;24.80;;;;;;;;;;5070326;28;20029;-66
2021/09/14 04:22:05;;;;;;;31.27;24.88;;;;;;;;;;5071452;28;20053;-66
2021/09/14 04:24:31;;;;;;;33.08;24.83;;;;;;;;;;5070144;28;20084;-66
2021/09/14 04:26:57;;;;;;;31.05;24.60;;;;;;;;;;5070895;28;20027;-66
2021/09/14 04:29:23;;;;;;;33.88;25.90;;;;;;;;;;5071457;28;20024;-66
2021/09/14 04:31:49;;;;;;;32.20;25.45;;;;;;;;;;5070290;28;20044;-66
2021/09/14 04:34:15;;;;;;;35.40;25.23;;;;;;;;;;5071104;28;20028;-65
2021/09/14 04:36:41;;;;;;;33.55;24.92;;;;;;;;;;5070158;28;20024;-66
2021/09/14 04:39:07;;;;;;;32.22;24.80;;;;;;;;;;5071402;28;20493;-66
2021/09/14 04:41:33;;;;;;;36.70;25.58;;;;;;;;;;5070003;28;20081;-66
2021/09/14 04:43:59;;;;;;;34.13;25.33;;;;;;;;;;5069681;28;20492;-66
2021/09/14 04:46:25;;;;;;;34.53;25.27;;;;;;;;;;5071020;28;20615;-66
2021/09/14 04:48:51;;;;;;;31.23;24.70;;;;;;;;;;5073895;28;20025;-66
2021/09/14 04:51:17;;;;;;;33.40;24.08;;;;;;;;;;5074814;28;20091;-66
2021/09/14 04:53:43;;;;;;;31.85;24.38;;;;;;;;;;5073163;28;20032;-67
2021/09/14 04:56:09;;;;;;;35.95;24.23;;;;;;;;;;5066284;28;20495;-64
2021/09/14 04:58:39;;;;;;;33.15;25.27;;;;;;;;;;5054906;28;20025;-63
2021/09/14 05:01:05;;;;;;;31.48;23.90;;;;;;;;;;5054689;28;20398;-65
2021/09/14 05:03:31;;;;;;;28.75;22.85;;;;;;;;;;5052927;28;20025;-63
2021/09/14 05:05:57;;;;;;;29.35;23.23;;;;;;;;;;5063868;28;20117;-63
2021/09/14 05:08:23;;;;;;;28.73;22.73;;;;;;;;;;5074136;28;20060;-63
2021/09/14 05:10:51;;;;;;;31.20;23.92;;;;;;;;;;5073021;28;20028;-64
2021/09/14 05:13:17;;;;;;;37.92;24.75;;;;;;;;;;5067619;28;20063;-63
2021/09/14 05:15:44;;;;;;;28.13;22.88;;;;;;;;;;5053705;28;20033;-64
2021/09/14 05:18:11;;;;;;;32.03;24.88;;;;;;;;;;5063243;28;20028;-63
2021/09/14 05:20:38;;;;;;;29.85;23.00;;;;;;;;;;5073237;28;20096;-64
2021/09/14 05:23:15;;;;;;;28.90;23.20;;;;;;;;;;5073930;28;20025;-64
2021/09/14 05:25:42;;;;;;;32.30;23.58;;;;;;;;;;5073738;28;20031;-64
2021/09/14 05:28:09;;;;;;;30.17;23.70;;;;;;;;;;5073802;28;20089;-64
2021/09/14 05:30:35;;;;;;;30.52;23.45;;;;;;;;;;5065488;28;20043;-64
2021/09/14 05:33:01;;;;;;;30.73;22.55;;;;;;;;;;5053237;28;20025;-64
2021/09/14 05:35:33;;;;;;;32.70;22.65;;;;;;;;;;5060759;28;20061;-63
2021/09/14 05:37:59;;;;;;;30.52;22.58;;;;;;;;;;5073589;28;20092;-64
2021/09/14 05:40:25;;;;;;;30.30;23.10;;;;;;;;;;5073618;28;20098;-64
2021/09/14 05:42:51;;;;;;;31.58;23.20;;;;;;;;;;5073627;28;20496;-64
2021/09/14 05:45:17;;;;;;;30.00;22.23;;;;;;;;;;5071940;28;20081;-64
2021/09/14 05:47:43;;;;;;;30.00;21.30;;;;;;;;;;5074614;28;20408;-65
2021/09/14 05:50:09;;;;;;;29.85;21.08;;;;;;;;;;5071973;28;20520;-59
2021/09/14 05:52:35;;;;;;;31.73;22.38;;;;;;;;;;5073235;28;20103;-63
2021/09/14 05:55:01;;;;;;;25.73;21.15;;;;;;;;;;5072754;28;20098;-65
2021/09/14 05:57:27;;;;;;;29.20;21.90;;;;;;;;;;5061512;28;20025;-64
2021/09/14 05:59:53;;;;;;;28.65;21.50;;;;;;;;;;5052810;28;20042;-64
2021/09/14 06:02:19;;;;;;;27.08;20.95;;;;;;;;;;5051904;28;20029;-63
2021/09/14 06:04:45;;;;;;;31.05;22.00;;;;;;;;;;5074169;22;20464;-62
2021/09/14 06:07:11;;;;;;;27.73;20.98;;;;;;;;;;5091904;28;20036;-61
2021/09/14 06:09:37;;;;;;;27.58;20.88;;;;;;;;;;5090406;28;20035;-63
2021/09/14 06:12:03;;;;;;;27.42;20.65;;;;;;;;;;5091647;28;20059;-62
2021/09/14 06:14:29;;;;;;;25.38;21.05;;;;;;;;;;5083803;28;20370;-63
2021/09/14 06:16:55;;;;;;;30.50;21.30;;;;;;;;;;5050414;28;20024;-62
2021/09/14 06:19:22;;;;;;;29.08;19.60;;;;;;;;;;5051773;28;20438;-61
2021/09/14 06:21:48;;;;;;;27.75;20.08;;;;;;;;;;5051477;28;20392;-62
2021/09/14 06:24:14;;;;;;;27.40;20.13;;;;;;;;;;5051070;28;20025;-60
2021/09/14 06:26:40;;;;;;;28.05;20.95;;;;;;;;;;5050622;28;20033;-63
2021/09/14 06:29:06;;;;;;;28.73;21.48;;;;;;;;;;5051574;28;20025;-63
2021/09/14 06:31:32;;;;;;;30.60;21.38;;;;;;;;;;5060654;28;20052;-63
2021/09/14 06:33:58;;;;;;;27.42;20.38;;;;;;;;;;5056629;28;20078;-62
2021/09/14 06:36:24;;;;;;;27.88;21.10;;;;;;;;;;5070204;28;20032;-62
2021/09/14 06:38:50;;;;;;;26.35;20.25;;;;;;;;;;5071698;28;20031;-61
2021/09/14 06:41:16;;;;;;;25.05;19.92;;;;;;;;;;5071501;28;20052;-61
2021/09/14 06:43:42;;;;;;;26.83;20.40;;;;;;;;;;5069701;28;20480;-62
2021/09/14 06:46:08;;;;;;;25.23;20.85;;;;;;;;;;5066886;28;20127;-61
2021/09/14 06:48:34;;;;;;;26.35;20.17;;;;;;;;;;5050156;28;20073;-61
2021/09/14 06:51:00;;;;;;;27.60;20.23;;;;;;;;;;5050861;28;20017;-62
2021/09/14 06:53:29;;;;;;;27.42;20.67;;;;;;;;;;5049509;28;20032;-62
2021/09/14 06:55:56;;;;;;;28.15;19.52;;;;;;;;;;5051207;28;20025;-67
2021/09/14 06:58:22;;;;;;;28.05;19.90;;;;;;;;;;5065334;28;20032;-65
2021/09/14 07:00:48;;;;;;;24.77;19.80;;;;;;;;;;5070768;28;20473;-66
2021/09/14 07:03:14;;;;;;;28.52;20.00;;;;;;;;;;5071036;28;20035;-67
2021/09/14 07:05:40;;;;;;;24.70;19.05;;;;;;;;;;5070854;28;20028;-67
2021/09/14 07:08:06;;;;;;;26.02;20.38;;;;;;;;;;5071070;28;20016;-67
2021/09/14 07:10:33;;;;;;;26.73;19.95;;;;;;;;;;5061149;28;20032;-67
2021/09/14 07:12:59;;;;;;;27.50;21.30;;;;;;;;;;5049572;28;20076;-68
2021/09/14 07:15:25;;;;;;;28.08;20.13;;;;;;;;;;5050621;28;20082;-65
2021/09/14 07:17:51;;;;;;;27.10;19.23;;;;;;;;;;5051319;28;20475;-67
2021/09/14 07:20:17;;;;;;;30.40;20.63;;;;;;;;;;5049841;28;20025;-65
2021/09/14 07:22:43;;;;;;;25.83;20.58;;;;;;;;;;5050951;28;20461;-68
2021/09/14 07:25:09;;;;;;;26.50;19.50;;;;;;;;;;5049356;28;20029;-67
2021/09/14 07:27:35;;;;;;;27.55;20.50;;;;;;;;;;5049683;28;20036;-68
2021/09/14 07:30:01;;;;;;;30.80;20.13;;;;;;;;;;5052903;28;20025;-67
2021/09/14 07:32:27;;;;;;;25.25;19.83;;;;;;;;;;5070609;28;20032;-67
2021/09/14 07:34:53;;;;;;;26.80;19.42;;;;;;;;;;5070176;28;20103;-67
2021/09/14 07:37:19;;;;;;;25.55;18.45;;;;;;;;;;5070762;28;20377;-66
2021/09/14 07:39:45;;;;;;;26.52;18.77;;;;;;;;;;5070799;28;20031;-68
2021/09/14 07:42:11;;;;;;;25.40;19.00;;;;;;;;;;5069698;28;20020;-67
2021/09/14 07:44:37;;;;;;;23.48;19.00;;;;;;;;;;5070712;28;20016;-67
2021/09/14 07:47:03;;;;;;;27.42;21.10;;;;;;;;;;5069185;28;20519;-67
2021/09/14 07:49:29;;;;;;;23.90;18.58;;;;;;;;;;5070835;28;20032;-68
2021/09/14 07:51:55;;;;;;;24.75;18.52;;;;;;;;;;5055023;28;20456;-68
2021/09/14 07:54:22;;;;;;;25.92;19.20;;;;;;;;;;5049373;28;20024;-68
2021/09/14 07:56:48;;;;;;;23.35;18.95;;;;;;;;;;5051720;28;20021;-68
2021/09/14 07:59:14;;;;;;;30.02;20.45;;;;;;;;;;5070442;28;20035;-68
2021/09/14 08:01:40;;;;;;;28.20;19.65;;;;;;;;;;5070353;28;20353;-64
2021/09/14 08:04:06;;;;;;;26.02;19.50;;;;;;;;;;5070196;28;20555;-68
2021/09/14 08:06:32;;;;;;;26.52;21.05;;;;;;;;;;5070437;28;20507;-68
2021/09/14 08:08:59;;;;;;;24.27;18.90;;;;;;;;;;5070361;28;20110;-69
2021/09/14 08:11:25;;;;;;;26.67;20.88;;;;;;;;;;5061471;28;20029;-69
2021/09/14 08:13:51;;;;;;;25.80;19.05;;;;;;;;;;5048834;28;20047;-67
2021/09/14 08:16:17;;;;;;;23.35;20.15;;;;;;;;;;5048988;28;20557;-68
2021/09/14 08:18:44;;;;;;;24.60;19.25;;;;;;;;;;5050539;28;20114;-68
2021/09/14 08:21:10;;;;;;;23.15;20.58;;;;;;;;;;5049215;28;20024;-66
2021/09/14 08:23:36;;;;;;;23.70;20.15;;;;;;;;;;5053793;28;20075;-67
2021/09/14 08:26:03;;;;;;;22.52;18.75;;;;;;;;;;5052833;28;20021;-68
2021/09/14 08:28:29;;;;;;;24.60;19.20;;;;;;;;;;5054723;28;20027;-67
2021/09/14 08:30:55;;;;;;;24.58;19.90;;;;;;;;;;5057381;28;20025;-68
2021/09/14 08:33:21;;;;;;;23.23;20.73;;;;;;;;;;5072333;28;20563;-68
2021/09/14 08:35:47;;;;;;;23.25;20.02;;;;;;;;;;5073586;28;20062;-67
2021/09/14 08:38:13;;;;;;;23.45;20.67;;;;;;;;;;5067880;28;20029;-68
2021/09/14 08:40:43;;;;;;;26.48;19.50;;;;;;;;;;5065811;28;20025;-68
2021/09/14 08:43:12;;;;;;;26.55;20.73;;;;;;;;;;5070914;28;20043;-67
2021/09/14 08:45:38;;;;;;;23.70;20.00;;;;;;;;;;5067981;28;20123;-67
2021/09/14 08:48:05;;;;;;;21.95;19.33;;;;;;;;;;5067006;28;20028;-68
2021/09/14 08:50:31;;;;;;;22.90;20.50;;;;;;;;;;5063374;28;20021;-68
2021/09/14 08:52:57;;;;;;;24.52;21.90;;;;;;;;;;5062794;28;20029;-68
2021/09/14 08:55:23;;;;;;;22.98;20.38;;;;;;;;;;5057319;28;20029;-68
2021/09/14 08:57:50;;;;;;;23.15;20.65;;;;;;;;;;4711564;28;10000173;-68
2021/09/14 09:00:22;;;;;;;22.30;19.88;;;;;;;;;;5064784;28;20029;-68
2021/09/14 09:02:55;;;;;;;22.85;20.38;;;;;;;;;;5070595;28;20046;-68
2021/09/14 09:05:29;;;;;;;23.73;21.13;;;;;;;;;;5070509;28;20063;-68
2021/09/14 09:07:55;;;;;;;23.33;20.73;;;;;;;;;;5070260;28;20032;-67
2021/09/14 09:10:21;;;;;;;26.58;20.77;;;;;;;;;;5070784;28;20028;-68
2021/09/14 09:12:47;;;;;;;24.83;21.65;;;;;;;;;;5058417;28;20033;-68
2021/09/14 09:15:24;;;;;;;24.05;21.52;;;;;;;;;;5050456;28;20021;-68
2021/09/14 09:18:00;;;;;;;25.17;21.67;;;;;;;;;;5051417;28;20496;-68
2021/09/14 09:20:26;;;;;;;24.45;21.08;;;;;;;;;;5050718;28;20037;-68
2021/09/14 09:23:00;;;;;;;25.15;22.50;;;;;;;;;;5050199;28;20036;-69
2021/09/14 09:25:26;;;;;;;26.65;22.35;;;;;;;;;;5049946;28;20021;-68
2021/09/14 09:28:02;;;;;;;26.65;22.38;;;;;;;;;;5048955;28;20043;-69
2021/09/14 09:30:33;;;;;;;24.30;21.65;;;;;;;;;;5048463;28;20537;-67
2021/09/14 09:33:03;;;;;;;23.85;21.30;;;;;;;;;;5050299;28;20252;-68
2021/09/14 09:35:33;;;;;;;25.13;20.73;;;;;;;;;;5050617;28;20380;-68
2021/09/14 09:38:00;;;;;;;24.40;21.88;;;;;;;;;;5052817;28;20104;-68
2021/09/14 09:40:27;;;;;;;23.73;21.23;;;;;;;;;;5052847;28;20473;-67
2021/09/14 09:42:53;;;;;;;24.33;21.80;;;;;;;;;;5052476;28;20487;-67
2021/09/14 09:45:20;;;;;;;24.33;21.80;;;;;;;;;;5052526;28;20017;-69
2021/09/14 09:47:49;;;;;;;23.35;20.85;;;;;;;;;;5051489;28;20396;-68
2021/09/14 09:50:15;;;;;;;23.77;21.27;;;;;;;;;;5052679;28;20100;-68
2021/09/14 09:52:44;;;;;;;23.92;21.42;;;;;;;;;;5053389;28;20124;-67
2021/09/14 09:55:10;;;;;;;25.02;20.30;;;;;;;;;;5051950;28;20452;-64
2021/09/14 09:57:37;;;;;;;23.92;21.23;;;;;;;;;;5060269;28;20024;-65
2021/09/14 10:00:08;;;;;;;22.92;20.52;;;;;;;;;;5072571;28;20025;-65
2021/09/14 10:02:35;;;;;;;28.95;21.30;;;;;;;;;;5072352;28;20517;-64
2021/09/14 10:05:02;;;;;;;23.00;20.58;;;;;;;;;;5072015;28;20036;-64
2021/09/14 10:07:30;;;;;;;23.40;20.83;;;;;;;;;;5071053;28;20021;-66
2021/09/14 10:09:57;;;;;;;23.20;20.83;;;;;;;;;;5072475;28;20388;-66
2021/09/14 10:12:30;;;;;;;23.25;20.25;;;;;;;;;;5069132;28;20586;-65
2021/09/14 10:14:57;;;;;;;23.35;20.95;;;;;;;;;;5059098;28;20508;-67
2021/09/14 10:17:23;;;;;;;22.95;20.38;;;;;;;;;;5072072;28;20036;-67
2021/09/14 10:19:49;;;;;;;22.38;19.65;;;;;;;;;;5070925;28;20016;-65
2021/09/14 10:22:22;;;;;;;24.05;20.65;;;;;;;;;;5070418;28;20468;-63
2021/09/14 10:25:01;;;;;;;22.08;19.60;;;;;;;;;;5069980;28;20097;-67
2021/09/14 10:27:41;;;;;;;25.50;19.70;;;;;;;;;;5061907;28;20542;-66
2021/09/14 10:30:08;;;;;;;21.90;19.38;;;;;;;;;;5049943;28;20025;-66
2021/09/14 10:32:41;;;;;;;22.38;20.08;;;;;;;;;;5051091;28;20033;-66
2021/09/14 10:35:08;;;;;;;22.17;19.35;;;;;;;;;;5051640;28;20056;-67
2021/09/14 10:37:36;;;;;;;24.38;21.73;;;;;;;;;;5051807;28;20029;-66
2021/09/14 10:40:29;;;;;;;23.23;20.83;;;;;;;;;;5051993;28;20143;-65
2021/09/14 10:42:59;;;;;;;22.92;19.98;;;;;;;;;;5048365;28;20029;-67
2021/09/14 10:45:25;;;;;;;27.27;20.15;;;;;;;;;;5048835;28;20053;-66
2021/09/14 10:47:52;;;;;;;21.88;19.50;;;;;;;;;;5062415;28;20087;-65
2021/09/14 10:50:28;;;;;;;22.05;19.65;;;;;;;;;;5071746;28;20025;-65
2021/09/14 10:53:02;;;;;;;21.92;19.63;;;;;;;;;;5071443;28;20114;-65
2021/09/14 10:55:29;;;;;;;22.92;20.27;;;;;;;;;;5071263;28;20032;-67
2021/09/14 10:58:00;;;;;;;21.90;19.60;;;;;;;;;;5071145;28;20449;-67
2021/09/14 11:00:28;;;;;;;22.42;20.13;;;;;;;;;;5071182;28;20032;-65
2021/09/14 11:03:05;;;;;;;24.55;21.40;;;;;;;;;;5062772;28;20033;-66
2021/09/14 11:05:32;;;;;;;22.08;19.75;;;;;;;;;;5049282;28;20033;-66
2021/09/14 11:08:02;;;;;;;22.00;19.45;;;;;;;;;;5051164;28;20036;-68
2021/09/14 11:10:35;;;;;;;25.77;19.88;;;;;;;;;;5050800;28;20032;-68
2021/09/14 11:13:01;;;;;;;22.77;20.27;;;;;;;;;;4365327;28;10000711;-67
2021/09/14 11:15:27;;;;;;;23.40;19.58;;;;;;;;;;5067852;28;20028;-66
2021/09/14 11:17:53;;;;;;;21.95;19.70;;;;;;;;;;5068441;28;20033;-67
2021/09/14 11:20:21;;;;;;;22.45;19.95;;;;;;;;;;5068699;28;20043;-68
2021/09/14 11:22:49;;;;;;;22.30;20.00;;;;;;;;;;5067824;28;20024;-68
2021/09/14 11:25:17;;;;;;;23.63;20.47;;;25.80;99.90;;;;;;5066627;28;20032;-66
2021/09/14 11:28:02;;;;;;;22.20;19.88;;;;;;;;;;5067777;28;20651;-67
2021/09/14 11:30:29;;;;;;;22.02;19.83;;;;;;;;;;5065129;28;20016;-67
2021/09/14 11:32:58;;;;;;;22.60;20.25;;;;;;;;;;5058459;28;20153;-67
2021/09/14 11:35:24;;;;;;;22.40;20.13;;;;;;;;;;5072123;28;20032;-67
2021/09/14 11:38:00;;;;;;;21.77;19.55;;;;;;;;;;5056059;28;20032;-65
2021/09/14 11:40:27;;;;;;;22.40;20.10;;;;;;;;;;5058525;28;20035;-67
2021/09/14 11:42:57;;;;;;;22.23;19.83;;;;;;;;;;5056800;28;20077;-67
2021/09/14 11:45:24;;;;;;;22.60;20.27;;;32.00;99.90;;;;;;5056723;28;20053;-68
2021/09/14 11:47:51;;;;;;;22.67;20.45;;;33.80;96.50;;;;;;5055980;28;20041;-67
2021/09/14 11:50:24;;;;;;;21.42;19.08;;;;;;;;;;5054631;28;20427;-68
2021/09/14 11:53:06;;;;;;;22.02;19.88;;;32.20;97.10;;;;;;5059152;28;20029;-68
2021/09/14 11:55:33;;;;;;;21.60;19.30;;;33.80;96.20;;;;;;5073225;28;20037;-67
2021/09/14 11:57:59;;;;;;;21.20;19.10;;;33.40;96.90;;;;;;5058094;28;20032;-66
2021/09/14 12:00:36;;;;;;;25.73;23.13;;;33.80;96.00;;;;;;5055739;28;20033;-66
2021/09/14 12:03:02;;;;;;;22.90;20.48;;;33.50;96.60;;;;;;5067762;28;20081;-68
2021/09/14 12:05:28;;;;;;;22.23;20.00;;;33.30;96.00;;;;;;5068778;22;20049;-61
2021/09/14 12:07:56;;;;;;;22.90;20.55;;;34.50;95.40;;;;;;5047504;28;20033;-58
2021/09/14 12:10:22;;;;;;;;;;;34.70;95.30;;;;;;5048360;28;20036;-61
2021/09/14 12:12:52;;;;;;;22.73;20.33;;;34.20;95.50;;;;;;5046767;28;19909;-60
2021/09/14 12:15:28;;;;;;;22.35;19.90;;;34.90;95.10;;;;;;5047727;28;20560;-61
2021/09/14 12:18:03;;;;;;;22.17;19.98;;;35.40;94.50;;;;;;5047902;28;20524;-61
2021/09/14 12:20:28;;;;;;;22.38;20.10;;;33.90;94.60;;;;;;5048619;28;20430;-61
2021/09/14 12:22:54;;;;;;;22.17;19.90;;;;;;;;;;5048727;28;20033;-61
2021/09/14 12:25:20;;;;;;;21.85;19.60;;;;;;;;;;5041403;28;20021;-60
2021/09/14 12:27:46;;;;;;;22.92;20.50;;;;;;;;;;5030282;28;20049;-60
2021/09/14 12:30:12;;;;;;;21.90;19.75;;;;;;;;;;5029967;28;20018;-60
2021/09/14 12:32:38;;;;;;;21.80;19.70;;;34.00;94.50;;;;;;5030122;28;20048;-60
2021/09/14 12:35:04;;;;;;;21.70;19.38;;;;;;;;;;5030772;28;20482;-61
2021/09/14 12:37:30;;;;;;;22.00;19.80;;;;;;;;;;5031038;28;20030;-60
2021/09/14 12:39:56;;;;;;;21.67;19.50;;;33.60;94.00;;;;;;5031170;28;20025;-59
2021/09/14 12:42:21;;;;;;;23.15;20.65;;;33.80;94.30;;;;;;5030862;28;20482;-59
2021/09/14 12:44:47;;;;;;;22.52;20.23;;;33.80;95.00;;;;;;5047451;28;20068;-60
2021/09/14 12:47:13;;;;;;;23.10;20.80;;;33.80;94.40;;;;;;5044714;28;20027;-60
2021/09/14 12:49:38;;;;;;;23.25;20.77;;;33.60;94.50;;;;;;5044044;28;20485;-60
2021/09/14 12:52:04;;;;;;;22.35;20.05;;;;;;;;;;5050940;28;20028;-60
2021/09/14 12:54:30;;;;;;;22.58;20.38;;;;;;;;;;5041318;28;20029;-60
2021/09/14 12:56:57;;;;;;;22.20;19.92;;;;;;;;;;5041140;28;20430;-59
2021/09/14 12:59:23;;;;;;;22.52;20.23;;;;;;;;;;5041054;28;20032;-64
2021/09/14 13:01:49;;;;;;;23.33;20.92;;;;;;;;;;5040510;28;20021;-60
2021/09/14 13:04:15;;;;;;;23.15;20.58;;;;;;;;;;5038350;28;20024;-60
2021/09/14 13:06:41;;;;;;;23.27;20.88;;;;;;;;;;5041153;28;20027;-61
2021/09/14 13:09:07;;;;;;;21.45;19.25;;;;;;;;;;5049692;28;20096;-60
2021/09/14 13:11:33;;;;;;;22.50;20.20;;;;;;;;;;5053911;28;20410;-60
2021/09/14 13:16:43;;;;;;;20.88;18.77;;;;;;;;;;5054440;28;20091;-60
2021/09/14 13:19:09;;;;;;;21.92;19.83;;;33.50;94.30;;;;;;5052248;28;20036;-57
2021/09/14 13:21:35;;;;;;;21.58;19.42;;;35.30;94.00;;;;;;5034165;28;20061;-58
2021/09/14 13:24:00;;;;;;;22.30;20.10;;;35.00;92.60;;;;;;5033538;28;20355;-59
2021/09/14 13:26:26;;;;;;;22.48;19.85;;;34.50;92.80;;;;;;5033870;28;20021;-57
2021/09/14 13:28:52;;;;;;;22.73;20.30;;;35.60;93.50;;;;;;5034062;28;20530;-59
2021/09/14 13:31:18;;;;;;;21.13;19.08;;;35.70;92.80;;;;;;5033810;28;20613;-59
2021/09/14 13:33:44;;;;;;;21.48;19.38;;;;;;;;;;5033465;28;20033;-59
2021/09/14 13:36:10;;;;;;;21.70;19.42;;;;;;;;;;5033806;28;20021;-59
2021/09/14 13:38:36;;;;;;;21.85;19.65;;;;;;;;;;5031903;28;20021;-59
2021/09/14 13:41:06;;;;;;;21.58;19.42;;;36.90;91.90;;;;;;5032866;28;20029;-58
2021/09/14 13:43:38;;;;;;;21.75;19.55;;;34.30;92.90;;;;;;5033273;28;20505;-57
2021/09/14 13:46:11;;;;;;;23.17;20.88;;;;;;;;;;5033483;28;20033;-56
2021/09/14 13:48:40;;;;;;;22.15;19.83;;;33.70;92.70;;;;;;5033836;28;20064;-58
2021/09/14 13:51:07;;;;;;;21.83;19.58;;;33.50;92.90;;;;;;5033620;28;20045;-59
2021/09/14 13:53:33;;;;;;;22.05;19.75;;;35.40;92.50;;;;;;5033449;28;20036;-59
2021/09/14 13:56:00;;;;;;;21.92;19.77;;;35.20;92.40;;;;;;5033211;28;20060;-59
2021/09/14 13:58:25;;;;;;;22.23;20.07;;;36.40;92.60;;;;;;5046486;28;20386;-57
2021/09/14 14:00:51;;;;;;;22.38;20.17;;;37.70;91.70;;;;;;5047203;28;20028;-58
2021/09/14 14:03:17;;;;;;;22.30;20.08;;;37.50;90.60;;;;;;5047669;28;20040;-57
2021/09/14 14:05:43;;;;;;;22.05;19.75;;;38.10;90.40;;;;;;5049134;28;20025;-59
2021/09/14 14:08:09;;;;;;;22.25;20.05;;;37.70;90.10;;;;;;5048965;28;20036;-59
2021/09/14 14:10:34;;;;;;;22.35;20.15;;;38.10;89.60;;;;;;5047045;28;20029;-58
2021/09/14 14:13:00;;;;;;;22.55;20.45;;;36.10;90.00;;;;;;5052540;28;20037;-59
2021/09/14 14:15:25;;;;;;;23.02;20.63;;;35.40;90.30;;;;;;5052460;28;20549;-58
2021/09/14 14:17:51;;;;;;;22.83;20.48;;;33.80;90.90;;;;;;5051013;28;20400;-60
2021/09/14 14:20:17;;;;;;;21.77;19.67;;;34.80;90.90;;;;;;5051357;28;20053;-60
2021/09/14 14:22:42;;;;;;;21.58;19.45;;;34.50;91.20;;;;;;5050344;28;20028;-60
2021/09/14 14:25:09;;;;;;;21.88;19.75;;;34.20;92.20;;;;;;5047093;28;20048;-60
2021/09/14 14:27:35;;;;;;;21.47;19.27;;;;;;;;;;5051495;28;20108;-59
2021/09/14 14:30:01;;;;;;;21.42;19.20;;;;;;;;;;5048616;28;20716;-59
2021/09/14 14:32:28;;;;;;;22.60;20.20;;;;;;;;;;5050952;28;20104;-60
2021/09/14 14:34:53;;;;;;;22.10;19.83;;;;;;;;;;5050762;28;20076;-60
2021/09/14 14:37:19;;;;;;;22.67;20.48;;;;;;;;;;5048541;28;20061;-60
2021/09/14 14:39:45;;;;;;;22.60;20.33;;;;;;;;;;5051304;28;20071;-59
2021/09/14 14:42:11;;;;;;;22.33;20.13;;;;;;;;;;5051388;28;20036;-58
2021/09/14 14:44:37;;;;;;;22.45;20.35;;;;;;;;;;5051342;28;20021;-62
2021/09/14 14:47:04;;;;;;;22.48;20.25;;;;;;;;;;5052107;28;20039;-62
2021/09/14 14:49:30;;;;;;;22.10;19.80;;;;;;;;;;4353569;28;10000399;-63
2021/09/14 14:51:56;;;;;;;22.08;19.88;;;;;;;;;;5046544;28;20077;-62
2021/09/14 14:54:22;;;;;;;22.65;20.45;;;;;;;;;;5047987;28;20671;-63
2021/09/14 14:56:48;;;;;;;22.48;20.17;;;;;;;;;;5046181;28;20030;-64
2021/09/14 14:59:14;;;;;;;21.17;19.05;;;;;;;;;;5047633;28;20023;-62
2021/09/14 15:01:40;;;;;;;22.42;20.17;;;;;;;;;;5046119;28;20032;-63